Kristina — WDI5000 — position and weather

sailwx.info

Track history (hours):
 
Tides and Currents Weather Stations Pressure Air Temp Water Temp Dewpoint Dewpoint Depression Visibility Wind Speed Wind Dir Waves Ship Positions

Kristina

Owner: Harbor Breeze Corp, Long Beach, CA. More information available from US FCC via Universal Licensing System and Coast Guard Vessel Documentation Center.

Last reported at 2018-Jun-25 02:16 UTC. Time now 2018-Jun-25 15:46 UTC.
Position N 33°46' W 118°12'.

Length 24 m.

Type: Passenger vessel. MMSI: 367704150.

Date/timePositionNaut miles runAvg speedWind from/ knotsBaromVisibWave heightAir tempDewpointWater temp
2018-Jun-25 02:16N 33°46' W 118°12'2 7.9
2018-Jun-25 02:00N 33°45' W 118°10'2 4.1
2018-Jun-25 01:30N 33°46' W 118°12'0 0.0
2018-Jun-25 01:00N 33°46' W 118°12'2 4.0
2018-Jun-25 00:30N 33°45' W 118°10'2 4.2
2018-Jun-25 00:01N 33°46' W 118°12'0 0.0
2018-Jun-24 23:30N 33°46' W 118°12'2 3.8
2018-Jun-24 23:00N 33°45' W 118°10'2 3.9
2018-Jun-24 22:30N 33°46' W 118°12'0 0.0
2018-Jun-24 22:01N 33°46' W 118°12'2 3.8
2018-Jun-24 21:30N 33°45' W 118°10'2 3.9
2018-Jun-24 21:00N 33°46' W 118°12'1 1.6
2018-Jun-24 20:30N 33°45' W 118°11'510.5
2018-Jun-24 20:00N 33°40' W 118°13'711.9
2018-Jun-24 19:26N 33°36' W 118°20'512.0
2018-Jun-24 18:59N 33°33' W 118°25'6 2.8
2018-Jun-24 16:45N 33°38' W 118°21'311.6
2018-Jun-24 16:30N 33°40' W 118°18'4 8.2
2018-Jun-24 16:01N 33°44' W 118°16'1 1.3
2018-Jun-24 15:30N 33°44' W 118°17'0 0.0
2018-Jun-24 15:00N 33°44' W 118°17'0 0.0
2018-Jun-24 14:30N 33°44' W 118°17'3 5.0
2018-Jun-24 14:00N 33°43' W 118°14'3 6.9
2018-Jun-24 13:30N 33°46' W 118°12'0 0.0
2018-Jun-24 02:07N 33°46' W 118°12'1 5.4
2018-Jun-24 02:00N 33°45' W 118°11'1 1.1
2018-Jun-24 01:30N 33°46' W 118°12'0 0.2
2018-Jun-24 01:00N 33°46' W 118°12'2 3.5
2018-Jun-24 00:30N 33°45' W 118°10'2 3.5
2018-Jun-24 00:00N 33°46' W 118°12'0 0.0
2018-Jun-23 23:30N 33°46' W 118°12'2 4.1
2018-Jun-23 23:00N 33°45' W 118°10'2 4.3
2018-Jun-23 22:30N 33°46' W 118°12'0 0.0
2018-Jun-23 22:00N 33°46' W 118°12'2 3.8
2018-Jun-23 21:30N 33°45' W 118°10'2 3.7
2018-Jun-23 21:00N 33°46' W 118°12'0 0.0
2018-Jun-23 20:30N 33°46' W 118°12'0 0.0
2018-Jun-23 20:00N 33°46' W 118°12'3 6.3
2018-Jun-23 19:30N 33°43' W 118°14'3 5.4
2018-Jun-23 19:01N 33°44' W 118°17'2 4.4
2018-Jun-23 18:30N 33°43' W 118°15'611.7
2018-Jun-23 18:00N 33°38' W 118°20'1410.9
2018-Jun-23 16:42N 33°28' W 118°32'11 5.8
2018-Jun-23 14:51N 33°36' W 118°22'411.6
2018-Jun-23 14:30N 33°38' W 118°19'611.4
2018-Jun-23 14:00N 33°42' W 118°13'4 8.7
2018-Jun-23 13:30N 33°46' W 118°12'0 0.0
2018-Jun-23 11:50N 33°46' W 118°12'0 0.0
2018-Jun-23 11:30N 33°46' W 118°12'0 0.0
2018-Jun-23 10:59N 33°46' W 118°12'0 0.0
2018-Jun-23 10:30N 33°46' W 118°12'0 0.0
2018-Jun-23 10:01N 33°46' W 118°12'0 0.0
2018-Jun-23 09:30N 33°46' W 118°12'0 0.0
2018-Jun-23 09:00N 33°46' W 118°12'0 0.0
2018-Jun-23 08:30N 33°46' W 118°12'0 0.0
2018-Jun-23 08:00N 33°46' W 118°12'0 0.0
2018-Jun-23 07:30N 33°46' W 118°12'0 0.0
2018-Jun-23 07:01N 33°46' W 118°12'0 0.0
2018-Jun-23 06:30N 33°46' W 118°12'0 0.0
2018-Jun-23 06:00N 33°46' W 118°12'0 0.0
2018-Jun-23 05:30N 33°46' W 118°12'0 0.0
2018-Jun-23 04:59N 33°46' W 118°12'0 0.0
2018-Jun-23 04:31N 33°46' W 118°12'0 0.0
2018-Jun-23 04:00N 33°46' W 118°12'0 0.0
2018-Jun-23 03:30N 33°46' W 118°12'0 0.0
2018-Jun-23 03:00N 33°46' W 118°12'0 0.0
2018-Jun-23 02:30N 33°46' W 118°12'0 0.0
2018-Jun-23 02:00N 33°46' W 118°12'1 3.0
2018-Jun-23 01:31N 33°45' W 118°11'1 2.9
2018-Jun-23 01:00N 33°46' W 118°12'2 3.6
2018-Jun-23 00:30N 33°45' W 118°10'2 3.7
2018-Jun-23 00:00N 33°46' W 118°12'0 0.0
2018-Jun-22 23:30N 33°46' W 118°12'1 2.8
2018-Jun-22 23:01N 33°45' W 118°10'1 2.8
2018-Jun-22 22:31N 33°46' W 118°12'0 0.0
2018-Jun-22 22:00N 33°46' W 118°12'1 2.2
2018-Jun-22 21:30N 33°45' W 118°10'1 2.2
2018-Jun-22 21:00N 33°46' W 118°12'0 0.0
2018-Jun-22 20:30N 33°46' W 118°12'1 2.6
2018-Jun-22 20:01N 33°45' W 118°11'1 2.5
2018-Jun-22 19:30N 33°46' W 118°12'1 3.1
2018-Jun-22 19:00N 33°45' W 118°11'1 3.0
2018-Jun-22 18:30N 33°46' W 118°12'0 0.0
2018-Jun-22 18:00N 33°46' W 118°12'0 0.8
2018-Jun-22 17:31N 33°45' W 118°11'3 5.2
2018-Jun-22 17:00N 33°43' W 118°12'3 5.8
2018-Jun-22 16:31N 33°46' W 118°12'0 0.0
2018-Jun-22 16:01N 33°46' W 118°12'0 0.0
2018-Jun-22 15:31N 33°46' W 118°12'0 0.0
2018-Jun-22 01:58N 33°46' W 118°12'2 3.4
2018-Jun-22 01:30N 33°44' W 118°11'2 3.2
2018-Jun-22 01:01N 33°46' W 118°12'2 3.6
2018-Jun-22 00:29N 33°45' W 118°10'2 3.9
2018-Jun-22 00:01N 33°46' W 118°12'0 0.0
2018-Jun-21 23:29N 33°46' W 118°12'2 3.2
2018-Jun-21 23:00N 33°45' W 118°10'2 3.1
2018-Jun-21 22:30N 33°46' W 118°12'0 0.0
2018-Jun-21 22:00N 33°46' W 118°12'2 3.5
2018-Jun-21 21:30N 33°45' W 118°10'2 3.5
2018-Jun-21 21:00N 33°46' W 118°12'0 0.0
2018-Jun-21 20:30N 33°46' W 118°12'1 2.0
2018-Jun-21 20:00N 33°45' W 118°11'1 2.0
2018-Jun-21 19:30N 33°46' W 118°12'1 2.3
2018-Jun-21 19:00N 33°45' W 118°11'1 2.0
2018-Jun-21 18:25N 33°46' W 118°12'2 5.4
2018-Jun-21 18:01N 33°44' W 118°12'4 7.3
2018-Jun-21 17:31N 33°44' W 118°17'0 0.0
2018-Jun-21 17:00N 33°44' W 118°17'4 8.2
2018-Jun-21 16:30N 33°44' W 118°12'2 0.1
2018-Jun-21 01:57N 33°46' W 118°12'2 3.5
2018-Jun-21 01:30N 33°44' W 118°11'2 3.1
2018-Jun-21 00:59N 33°46' W 118°12'2 3.7
2018-Jun-21 00:28N 33°45' W 118°10'2 4.1
2018-Jun-21 00:00N 33°46' W 118°12'0 0.0
2018-Jun-20 23:29N 33°46' W 118°12'2 3.9
2018-Jun-20 23:00N 33°45' W 118°10'2 3.6
2018-Jun-20 22:30N 33°46' W 118°12'0 0.0
2018-Jun-20 22:00N 33°46' W 118°12'2 4.1
2018-Jun-20 21:30N 33°44' W 118°10'2 4.1
2018-Jun-20 21:00N 33°46' W 118°12'0 0.0
2018-Jun-20 20:29N 33°46' W 118°12'1 2.9
2018-Jun-20 20:00N 33°45' W 118°11'1 2.8
2018-Jun-20 19:30N 33°46' W 118°12'1 2.6
2018-Jun-20 19:00N 33°45' W 118°11'1 2.6
2018-Jun-20 18:30N 33°46' W 118°12'0 0.0
2018-Jun-20 18:00N 33°46' W 118°12'3 6.7
2018-Jun-20 17:30N 33°44' W 118°09'1 2.1
2018-Jun-20 17:00N 33°44' W 118°10'2 4.3
2018-Jun-20 16:28N 33°46' W 118°12'0 0.0
2018-Jun-20 16:00N 33°46' W 118°12'0 0.0
2018-Jun-19 02:02N 33°46' W 118°12'0 1.0
2018-Jun-19 02:01N 33°46' W 118°12'1 1.8
2018-Jun-19 01:30N 33°45' W 118°11'1 1.9
2018-Jun-19 01:00N 33°46' W 118°12'1 2.0
2018-Jun-19 00:30N 33°45' W 118°11'1 2.0
2018-Jun-19 00:00N 33°46' W 118°12'0 0.0
2018-Jun-18 23:30N 33°46' W 118°12'2 4.0
2018-Jun-18 23:00N 33°44' W 118°10'2 4.0
2018-Jun-18 22:30N 33°46' W 118°12'0 0.0
2018-Jun-18 22:00N 33°46' W 118°12'2 3.7
2018-Jun-18 21:30N 33°45' W 118°10'2 3.7
2018-Jun-18 21:01N 33°46' W 118°12'0 0.0
2018-Jun-18 20:31N 33°46' W 118°12'2 3.1
2018-Jun-18 20:00N 33°44' W 118°11'2 3.2
2018-Jun-18 19:30N 33°46' W 118°12'1 2.4
2018-Jun-18 19:01N 33°45' W 118°11'1 2.4
2018-Jun-18 18:30N 33°46' W 118°12'0 0.0
2018-Jun-18 18:00N 33°46' W 118°12'0 0.0
2018-Jun-18 02:18N 33°46' W 118°12'2 5.9
2018-Jun-18 02:00N 33°45' W 118°10'2 3.4
2018-Jun-18 01:30N 33°46' W 118°12'0 0.0
2018-Jun-18 01:00N 33°46' W 118°12'2 3.8
2018-Jun-18 00:30N 33°45' W 118°10'2 3.8
2018-Jun-18 00:00N 33°46' W 118°12'0 0.0
2018-Jun-17 23:30N 33°46' W 118°12'2 3.8
2018-Jun-17 23:00N 33°45' W 118°10'2 3.8
2018-Jun-17 22:30N 33°46' W 118°12'0 0.0
2018-Jun-17 21:56N 33°46' W 118°12'2 3.9
2018-Jun-17 21:30N 33°45' W 118°10'2 3.3
2018-Jun-17 21:00N 33°46' W 118°12'0 0.0
2018-Jun-17 20:30N 33°46' W 118°12'4 8.9
2018-Jun-17 20:00N 33°41' W 118°11'611.8
2018-Jun-17 19:30N 33°39' W 118°18'611.9
2018-Jun-17 19:00N 33°35' W 118°23'7 2.4
2018-Jun-17 16:05N 33°40' W 118°18'111.4
2018-Jun-17 16:00N 33°41' W 118°17'4 7.3
2018-Jun-17 15:30N 33°44' W 118°17'0 0.2
2018-Jun-17 15:00N 33°44' W 118°17'0 0.0
2018-Jun-17 14:30N 33°44' W 118°17'1 1.7
2018-Jun-17 14:00N 33°44' W 118°16'5 9.2
2018-Jun-17 13:30N 33°44' W 118°11'2 0.1
2018-Jun-17 02:56N 33°46' W 118°12'2 4.2
2018-Jun-17 02:30N 33°44' W 118°11'2 3.6
2018-Jun-17 02:00N 33°46' W 118°12'2 3.1
2018-Jun-17 01:30N 33°44' W 118°11'2 3.0
2018-Jun-17 01:00N 33°46' W 118°12'2 4.1
2018-Jun-17 00:31N 33°45' W 118°10'2 4.0
2018-Jun-17 00:00N 33°46' W 118°12'0 0.0
2018-Jun-16 23:30N 33°46' W 118°12'2 4.2
2018-Jun-16 22:59N 33°44' W 118°10'2 4.5
2018-Jun-16 22:31N 33°46' W 118°12'0 0.0
2018-Jun-16 22:00N 33°46' W 118°12'2 3.9
2018-Jun-16 21:30N 33°45' W 118°09'2 3.9
2018-Jun-16 21:00N 33°46' W 118°12'0 0.0
2018-Jun-16 20:30N 33°46' W 118°12'0 0.0
2018-Jun-16 20:00N 33°46' W 118°12'2 4.7
2018-Jun-16 19:30N 33°43' W 118°12'4 7.3
2018-Jun-16 19:00N 33°44' W 118°17'2 3.7
2018-Jun-16 18:30N 33°43' W 118°15'510.4
2018-Jun-16 18:00N 33°39' W 118°20'10 4.0
2018-Jun-16 15:27N 33°31' W 118°28'511.0
2018-Jun-16 14:58N 33°35' W 118°23'510.8
2018-Jun-16 14:30N 33°38' W 118°19'510.8
2018-Jun-16 14:00N 33°41' W 118°14'4 8.9
2018-Jun-16 13:31N 33°46' W 118°12'0 0.0
2018-Jun-16 02:10N 33°46' W 118°12'0 0.0
2018-Jun-16 02:00N 33°46' W 118°12'2 3.2
2018-Jun-16 01:30N 33°44' W 118°11'2 3.1
2018-Jun-16 01:00N 33°46' W 118°12'2 3.3
2018-Jun-16 00:30N 33°45' W 118°10'2 3.3
2018-Jun-16 00:00N 33°46' W 118°12'0 0.0
2018-Jun-15 23:30N 33°46' W 118°12'1 2.9
2018-Jun-15 23:00N 33°45' W 118°10'1 2.9
2018-Jun-15 22:30N 33°46' W 118°12'0 0.0
2018-Jun-15 22:00N 33°46' W 118°12'2 3.2
2018-Jun-15 21:30N 33°45' W 118°10'2 3.1
2018-Jun-15 21:00N 33°46' W 118°12'0 0.0
2018-Jun-15 20:30N 33°46' W 118°12'1 2.6
2018-Jun-15 20:00N 33°45' W 118°11'1 2.7
2018-Jun-15 19:30N 33°46' W 118°12'2 3.1
2018-Jun-15 19:00N 33°44' W 118°11'2 3.1
2018-Jun-15 18:30N 33°46' W 118°12'0 0.0
2018-Jun-15 18:00N 33°46' W 118°12'4 7.6
2018-Jun-15 17:30N 33°43' W 118°08'4 7.3
2018-Jun-15 17:00N 33°45' W 118°12'  
Track history (hours):
 
Tides and Currents Weather Stations Pressure Air Temp Water Temp Dewpoint Dewpoint Depression Visibility Wind Speed Wind Dir Waves Ship Positions

Kristina

Owner: Harbor Breeze Corp, Long Beach, CA. More information available from US FCC via Universal Licensing System and Coast Guard Vessel Documentation Center.

Last reported at 2018-Jun-25 02:16 UTC. Time now 2018-Jun-25 15:46 UTC.
Position N 33°46' W 118°12'.

Length 24 m.

Type: Passenger vessel. MMSI: 367704150.

Date/timePositionNaut miles runAvg speedWind from/ knotsBaromVisibWave heightAir tempDewpointWater temp
2018-Jun-25 02:16N 33°46' W 118°12'2 7.9
2018-Jun-25 02:00N 33°45' W 118°10'2 4.1
2018-Jun-25 01:30N 33°46' W 118°12'0 0.0
2018-Jun-25 01:00N 33°46' W 118°12'2 4.0
2018-Jun-25 00:30N 33°45' W 118°10'2 4.2
2018-Jun-25 00:01N 33°46' W 118°12'0 0.0
2018-Jun-24 23:30N 33°46' W 118°12'2 3.8
2018-Jun-24 23:00N 33°45' W 118°10'2 3.9
2018-Jun-24 22:30N 33°46' W 118°12'0 0.0
2018-Jun-24 22:01N 33°46' W 118°12'2 3.8
2018-Jun-24 21:30N 33°45' W 118°10'2 3.9
2018-Jun-24 21:00N 33°46' W 118°12'1 1.6
2018-Jun-24 20:30N 33°45' W 118°11'510.5
2018-Jun-24 20:00N 33°40' W 118°13'711.9
2018-Jun-24 19:26N 33°36' W 118°20'512.0
2018-Jun-24 18:59N 33°33' W 118°25'6 2.8
2018-Jun-24 16:45N 33°38' W 118°21'311.6
2018-Jun-24 16:30N 33°40' W 118°18'4 8.2
2018-Jun-24 16:01N 33°44' W 118°16'1 1.3
2018-Jun-24 15:30N 33°44' W 118°17'0 0.0
2018-Jun-24 15:00N 33°44' W 118°17'0 0.0
2018-Jun-24 14:30N 33°44' W 118°17'3 5.0
2018-Jun-24 14:00N 33°43' W 118°14'3 6.9
2018-Jun-24 13:30N 33°46' W 118°12'0 0.0
2018-Jun-24 02:07N 33°46' W 118°12'1 5.4
2018-Jun-24 02:00N 33°45' W 118°11'1 1.1
2018-Jun-24 01:30N 33°46' W 118°12'0 0.2
2018-Jun-24 01:00N 33°46' W 118°12'2 3.5
2018-Jun-24 00:30N 33°45' W 118°10'2 3.5
2018-Jun-24 00:00N 33°46' W 118°12'0 0.0
2018-Jun-23 23:30N 33°46' W 118°12'2 4.1
2018-Jun-23 23:00N 33°45' W 118°10'2 4.3
2018-Jun-23 22:30N 33°46' W 118°12'0 0.0
2018-Jun-23 22:00N 33°46' W 118°12'2 3.8
2018-Jun-23 21:30N 33°45' W 118°10'2 3.7
2018-Jun-23 21:00N 33°46' W 118°12'0 0.0
2018-Jun-23 20:30N 33°46' W 118°12'0 0.0
2018-Jun-23 20:00N 33°46' W 118°12'3 6.3
2018-Jun-23 19:30N 33°43' W 118°14'3 5.4
2018-Jun-23 19:01N 33°44' W 118°17'2 4.4
2018-Jun-23 18:30N 33°43' W 118°15'611.7
2018-Jun-23 18:00N 33°38' W 118°20'1410.9
2018-Jun-23 16:42N 33°28' W 118°32'11 5.8
2018-Jun-23 14:51N 33°36' W 118°22'411.6
2018-Jun-23 14:30N 33°38' W 118°19'611.4
2018-Jun-23 14:00N 33°42' W 118°13'4 8.7
2018-Jun-23 13:30N 33°46' W 118°12'0 0.0
2018-Jun-23 11:50N 33°46' W 118°12'0 0.0
2018-Jun-23 11:30N 33°46' W 118°12'0 0.0
2018-Jun-23 10:59N 33°46' W 118°12'0 0.0
2018-Jun-23 10:30N 33°46' W 118°12'0 0.0
2018-Jun-23 10:01N 33°46' W 118°12'0 0.0
2018-Jun-23 09:30N 33°46' W 118°12'0 0.0
2018-Jun-23 09:00N 33°46' W 118°12'0 0.0
2018-Jun-23 08:30N 33°46' W 118°12'0 0.0
2018-Jun-23 08:00N 33°46' W 118°12'0 0.0
2018-Jun-23 07:30N 33°46' W 118°12'0 0.0
2018-Jun-23 07:01N 33°46' W 118°12'0 0.0
2018-Jun-23 06:30N 33°46' W 118°12'0 0.0
2018-Jun-23 06:00N 33°46' W 118°12'0 0.0
2018-Jun-23 05:30N 33°46' W 118°12'0 0.0
2018-Jun-23 04:59N 33°46' W 118°12'0 0.0
2018-Jun-23 04:31N 33°46' W 118°12'0 0.0
2018-Jun-23 04:00N 33°46' W 118°12'0 0.0
2018-Jun-23 03:30N 33°46' W 118°12'0 0.0
2018-Jun-23 03:00N 33°46' W 118°12'0 0.0
2018-Jun-23 02:30N 33°46' W 118°12'0 0.0
2018-Jun-23 02:00N 33°46' W 118°12'1 3.0
2018-Jun-23 01:31N 33°45' W 118°11'1 2.9
2018-Jun-23 01:00N 33°46' W 118°12'2 3.6
2018-Jun-23 00:30N 33°45' W 118°10'2 3.7
2018-Jun-23 00:00N 33°46' W 118°12'0 0.0
2018-Jun-22 23:30N 33°46' W 118°12'1 2.8
2018-Jun-22 23:01N 33°45' W 118°10'1 2.8
2018-Jun-22 22:31N 33°46' W 118°12'0 0.0
2018-Jun-22 22:00N 33°46' W 118°12'1 2.2
2018-Jun-22 21:30N 33°45' W 118°10'1 2.2
2018-Jun-22 21:00N 33°46' W 118°12'0 0.0
2018-Jun-22 20:30N 33°46' W 118°12'1 2.6
2018-Jun-22 20:01N 33°45' W 118°11'1 2.5
2018-Jun-22 19:30N 33°46' W 118°12'1 3.1
2018-Jun-22 19:00N 33°45' W 118°11'1 3.0
2018-Jun-22 18:30N 33°46' W 118°12'0 0.0
2018-Jun-22 18:00N 33°46' W 118°12'0 0.8
2018-Jun-22 17:31N 33°45' W 118°11'3 5.2
2018-Jun-22 17:00N 33°43' W 118°12'3 5.8
2018-Jun-22 16:31N 33°46' W 118°12'0 0.0
2018-Jun-22 16:01N 33°46' W 118°12'0 0.0
2018-Jun-22 15:31N 33°46' W 118°12'0 0.0
2018-Jun-22 01:58N 33°46' W 118°12'2 3.4
2018-Jun-22 01:30N 33°44' W 118°11'2 3.2
2018-Jun-22 01:01N 33°46' W 118°12'2 3.6
2018-Jun-22 00:29N 33°45' W 118°10'2 3.9
2018-Jun-22 00:01N 33°46' W 118°12'0 0.0
2018-Jun-21 23:29N 33°46' W 118°12'2 3.2
2018-Jun-21 23:00N 33°45' W 118°10'2 3.1
2018-Jun-21 22:30N 33°46' W 118°12'0 0.0
2018-Jun-21 22:00N 33°46' W 118°12'2 3.5
2018-Jun-21 21:30N 33°45' W 118°10'2 3.5
2018-Jun-21 21:00N 33°46' W 118°12'0 0.0
2018-Jun-21 20:30N 33°46' W 118°12'1 2.0
2018-Jun-21 20:00N 33°45' W 118°11'1 2.0
2018-Jun-21 19:30N 33°46' W 118°12'1 2.3
2018-Jun-21 19:00N 33°45' W 118°11'1 2.0
2018-Jun-21 18:25N 33°46' W 118°12'2 5.4
2018-Jun-21 18:01N 33°44' W 118°12'4 7.3
2018-Jun-21 17:31N 33°44' W 118°17'0 0.0
2018-Jun-21 17:00N 33°44' W 118°17'4 8.2
2018-Jun-21 16:30N 33°44' W 118°12'2 0.1
2018-Jun-21 01:57N 33°46' W 118°12'2 3.5
2018-Jun-21 01:30N 33°44' W 118°11'2 3.1
2018-Jun-21 00:59N 33°46' W 118°12'2 3.7
2018-Jun-21 00:28N 33°45' W 118°10'2 4.1
2018-Jun-21 00:00N 33°46' W 118°12'0 0.0
2018-Jun-20 23:29N 33°46' W 118°12'2 3.9
2018-Jun-20 23:00N 33°45' W 118°10'2 3.6
2018-Jun-20 22:30N 33°46' W 118°12'0 0.0
2018-Jun-20 22:00N 33°46' W 118°12'2 4.1
2018-Jun-20 21:30N 33°44' W 118°10'2 4.1
2018-Jun-20 21:00N 33°46' W 118°12'0 0.0
2018-Jun-20 20:29N 33°46' W 118°12'1 2.9
2018-Jun-20 20:00N 33°45' W 118°11'1 2.8
2018-Jun-20 19:30N 33°46' W 118°12'1 2.6
2018-Jun-20 19:00N 33°45' W 118°11'1 2.6
2018-Jun-20 18:30N 33°46' W 118°12'0 0.0
2018-Jun-20 18:00N 33°46' W 118°12'3 6.7
2018-Jun-20 17:30N 33°44' W 118°09'1 2.1
2018-Jun-20 17:00N 33°44' W 118°10'2 4.3
2018-Jun-20 16:28N 33°46' W 118°12'0 0.0
2018-Jun-20 16:00N 33°46' W 118°12'0 0.0
2018-Jun-19 02:02N 33°46' W 118°12'0 1.0
2018-Jun-19 02:01N 33°46' W 118°12'1 1.8
2018-Jun-19 01:30N 33°45' W 118°11'1 1.9
2018-Jun-19 01:00N 33°46' W 118°12'1 2.0
2018-Jun-19 00:30N 33°45' W 118°11'1 2.0
2018-Jun-19 00:00N 33°46' W 118°12'0 0.0
2018-Jun-18 23:30N 33°46' W 118°12'2 4.0
2018-Jun-18 23:00N 33°44' W 118°10'2 4.0
2018-Jun-18 22:30N 33°46' W 118°12'0 0.0
2018-Jun-18 22:00N 33°46' W 118°12'2 3.7
2018-Jun-18 21:30N 33°45' W 118°10'2 3.7
2018-Jun-18 21:01N 33°46' W 118°12'0 0.0
2018-Jun-18 20:31N 33°46' W 118°12'2 3.1
2018-Jun-18 20:00N 33°44' W 118°11'2 3.2
2018-Jun-18 19:30N 33°46' W 118°12'1 2.4
2018-Jun-18 19:01N 33°45' W 118°11'1 2.4
2018-Jun-18 18:30N 33°46' W 118°12'0 0.0
2018-Jun-18 18:00N 33°46' W 118°12'0 0.0
2018-Jun-18 02:18N 33°46' W 118°12'2 5.9
2018-Jun-18 02:00N 33°45' W 118°10'2 3.4
2018-Jun-18 01:30N 33°46' W 118°12'0 0.0
2018-Jun-18 01:00N 33°46' W 118°12'2 3.8
2018-Jun-18 00:30N 33°45' W 118°10'2 3.8
2018-Jun-18 00:00N 33°46' W 118°12'0 0.0
2018-Jun-17 23:30N 33°46' W 118°12'2 3.8
2018-Jun-17 23:00N 33°45' W 118°10'2 3.8
2018-Jun-17 22:30N 33°46' W 118°12'0 0.0
2018-Jun-17 21:56N 33°46' W 118°12'2 3.9
2018-Jun-17 21:30N 33°45' W 118°10'2 3.3
2018-Jun-17 21:00N 33°46' W 118°12'0 0.0
2018-Jun-17 20:30N 33°46' W 118°12'4 8.9
2018-Jun-17 20:00N 33°41' W 118°11'611.8
2018-Jun-17 19:30N 33°39' W 118°18'611.9
2018-Jun-17 19:00N 33°35' W 118°23'7 2.4
2018-Jun-17 16:05N 33°40' W 118°18'111.4
2018-Jun-17 16:00N 33°41' W 118°17'4 7.3
2018-Jun-17 15:30N 33°44' W 118°17'0 0.2
2018-Jun-17 15:00N 33°44' W 118°17'0 0.0
2018-Jun-17 14:30N 33°44' W 118°17'1 1.7
2018-Jun-17 14:00N 33°44' W 118°16'5 9.2
2018-Jun-17 13:30N 33°44' W 118°11'2 0.1
2018-Jun-17 02:56N 33°46' W 118°12'2 4.2
2018-Jun-17 02:30N 33°44' W 118°11'2 3.6
2018-Jun-17 02:00N 33°46' W 118°12'2 3.1
2018-Jun-17 01:30N 33°44' W 118°11'2 3.0
2018-Jun-17 01:00N 33°46' W 118°12'2 4.1
2018-Jun-17 00:31N 33°45' W 118°10'2 4.0
2018-Jun-17 00:00N 33°46' W 118°12'0 0.0
2018-Jun-16 23:30N 33°46' W 118°12'2 4.2
2018-Jun-16 22:59N 33°44' W 118°10'2 4.5
2018-Jun-16 22:31N 33°46' W 118°12'0 0.0
2018-Jun-16 22:00N 33°46' W 118°12'2 3.9
2018-Jun-16 21:30N 33°45' W 118°09'2 3.9
2018-Jun-16 21:00N 33°46' W 118°12'0 0.0
2018-Jun-16 20:30N 33°46' W 118°12'0 0.0
2018-Jun-16 20:00N 33°46' W 118°12'2 4.7
2018-Jun-16 19:30N 33°43' W 118°12'4 7.3
2018-Jun-16 19:00N 33°44' W 118°17'2 3.7
2018-Jun-16 18:30N 33°43' W 118°15'510.4
2018-Jun-16 18:00N 33°39' W 118°20'10 4.0
2018-Jun-16 15:27N 33°31' W 118°28'511.0
2018-Jun-16 14:58N 33°35' W 118°23'510.8
2018-Jun-16 14:30N 33°38' W 118°19'510.8
2018-Jun-16 14:00N 33°41' W 118°14'4 8.9
2018-Jun-16 13:31N 33°46' W 118°12'0 0.0
2018-Jun-16 02:10N 33°46' W 118°12'0 0.0
2018-Jun-16 02:00N 33°46' W 118°12'2 3.2
2018-Jun-16 01:30N 33°44' W 118°11'2 3.1
2018-Jun-16 01:00N 33°46' W 118°12'2 3.3
2018-Jun-16 00:30N 33°45' W 118°10'2 3.3
2018-Jun-16 00:00N 33°46' W 118°12'0 0.0
2018-Jun-15 23:30N 33°46' W 118°12'1 2.9
2018-Jun-15 23:00N 33°45' W 118°10'1 2.9
2018-Jun-15 22:30N 33°46' W 118°12'0 0.0
2018-Jun-15 22:00N 33°46' W 118°12'2 3.2
2018-Jun-15 21:30N 33°45' W 118°10'2 3.1
2018-Jun-15 21:00N 33°46' W 118°12'0 0.0
2018-Jun-15 20:30N 33°46' W 118°12'1 2.6
2018-Jun-15 20:00N 33°45' W 118°11'1 2.7
2018-Jun-15 19:30N 33°46' W 118°12'2 3.1
2018-Jun-15 19:00N 33°44' W 118°11'2 3.1
2018-Jun-15 18:30N 33°46' W 118°12'0 0.0
2018-Jun-15 18:00N 33°46' W 118°12'4 7.6
2018-Jun-15 17:30N 33°43' W 118°08'4 7.3
2018-Jun-15 17:00N 33°45' W 118°12'  

Dump ship's entire track history